Terminal Aerodrome Forecast
Issued by NWS

Current Version | Previous Version | Graphics & Text | Print | Product List | Glossary On
Versions: 1 2 3 4 5 6 7 8 9 10 11 12 13 14 15
140
FTUS41 KILN 180529
TAFLCK
TAF
KLCK 180529Z 1806/1906 00000KT P6SM SKC
     FM181400 18005KT P6SM SKC
     FM181700 20009KT P6SM SKC
     FM182300 17003KT P6SM SKC=

USA.gov is the U.S. government's official web portal to all federal, state and local government web resources and services.